METAR AND TAF INFORMATION
METAR FOR LEGR
ADDS - METARS form results

(2243 UTC 26 April 2018)
Data provider http://aviationweather.gov/adds/metars/
 
METAR text: LEGR 262230Z VRB02KT 9999 FEW060 SCT100 13/11 Q1019
Conditions at: LEGR (GRANADA AIRPORT , ES) observed 2230 UTC 26 April 2018
Temperature: 13.0°C (55°F)
Dewpoint: 11.0°C (52°F) [RH = 88%]
Pressure (altimeter): 30.09 inches Hg (1019.0 mb)
Winds: variable direction winds at 2 MPH (2 knots; 1.0 m/s)
Visibility: 6 or more miles (10+ km)
Ceiling: at least 12,000 feet AGL
Clouds: few clouds at 6000 feet AGL
scattered clouds at 10000 feet AGL
Weather: no significant weather observed at this time

METAR text: LEGR 262200Z 17003KT 140V200 9999 FEW040 BKN090 14/12 Q1019
Conditions at: LEGR (GRANADA AIRPORT , ES) observed 2200 UTC 26 April 2018
Temperature: 14.0°C (57°F)
Dewpoint: 12.0°C (54°F) [RH = 88%]
Pressure (altimeter): 30.09 inches Hg (1019.0 mb)
Winds: from the S (170 degrees) at 3 MPH (3 knots; 1.6 m/s)
Visibility: 6 or more miles (10+ km)
Ceiling: 9000 feet AGL
Clouds: few clouds at 4000 feet AGL
broken clouds at 9000 feet AGL
Weather: no significant weather observed at this time

Forecast for: LEGR (GRANADA AIRPORT , ES)
Text: TAF LEGR 262000Z 2621/2721 VRB02KT 9999 FEW040 TX22/2715Z TN11/2707Z
Forecast period: 2100 UTC 26 April 2018 to 2100 UTC 27 April 2018
Forecast type: FROM: standard forecast or significant change
Winds: variable direction winds at 2 MPH (2 knots; 1.0 m/s)
Visibility: 6 or more miles (10+ km)
Clouds: few clouds at 4000 feet AGL
Weather: no significant weather forecast for this period
Forecast for: LEGR (GRANADA AIRPORT , ES)
Text: TAF LEGR 262000Z 2621/2721 VRB02KT 9999 FEW040 TX22/2715Z TN11/2707Z
Forecast period: 2100 UTC 26 April 2018 to 2100 UTC 27 April 2018
Forecast type: FROM: standard forecast or significant change
Winds: variable direction winds at 2 MPH (2 knots; 1.0 m/s)
Visibility: 6 or more miles (10+ km)
Clouds: few clouds at 4000 feet AGL
Weather: no significant weather forecast for this period
Forecast for: LEGR (GRANADA AIRPORT , ES)
Text: TAF LEGR 262000Z 2621/2721 VRB02KT 9999 FEW040 TX22/2715Z TN11/2707Z
Forecast period: 1200 to 2100 UTC 27 April 2018
Forecast type: TEMPORARY: The following changes expected for less than half the time period
Winds: from the WNW (290 degrees) at 14 MPH (12 knots; 6.2 m/s)
Visibility: 2.49 miles (4.01 km)
Clouds: few clouds at 3000 feet AGL
Weather: SHRA  (rain showers)
Forecast for: LEGR (GRANADA AIRPORT , ES)
Text: TAF LEGR 262000Z 2621/2721 VRB02KT 9999 FEW040 TX22/2715Z TN11/2707Z
Forecast period: 1200 to 2100 UTC 27 April 2018
Forecast type: TEMPORARY: The following changes expected for less than half the time period
Winds: from the WNW (290 degrees) at 14 MPH (12 knots; 6.2 m/s)
Visibility: 2.49 miles (4.01 km)
Clouds: few clouds at 3000 feet AGL
Weather: SHRA  (rain showers)

 AIRPORT MAP

 RUNWAY INFORMATION
Runway 09 Runway length 9514 ft Runway width 148 ft
Runway elevation 1842 ft Runway displaced threshold 0 ft Runway heading 90
Runway 27 Runway length 9514 ft Runway width 148 ft
Runway elevation 1860 ft Runway displaced threshold 0 ft Runway heading 270

 AIRPORT FREQUENCIES
Type GND Name GND Frequency 121.7 MHZ
Type TWR Name TWR Frequency 118.85 MHZ

 AIRPORT NEAR NAVIGATION AIDS
Type VOR-DME Name Granada Frequency 113400 KHZ



Powered by Virtual Airlines Manager [v2.6.2]